Time;durP1;ratioP1;P1;durP2;ratioP2;P2;SDS_P1;SDS_P2;PMS_P1;PMS_P2;Temp;Humidity;BMP_temperature;BMP_pressure;BME280_temperature;BME280_humidity;BME280_pressure;Samples;Min_cycle;Max_cycle;Signal;HPM_P1;HPM_P2
2022/06/11 01:28:53;;;;;;;;;;;;;;;;;;1574882;19;255692500;31
2022/06/11 01:31:22;;;;;;;6.03;4.30;;;;;;;;;;7392054;19;20168;-83
2022/06/11 01:34:07;;;;;;;5.57;4.20;;;;;;;;;;7388511;19;20149;-86
2022/06/11 01:36:36;;;;;;;4.50;4.00;;;;;;;;;;7395680;19;20149;-83
2022/06/11 01:39:05;;;;;;;5.47;4.40;;;;;;;;;;7398558;19;20181;-83
2022/06/11 01:41:31;;;;;;;5.83;4.30;;;;;;;;;;7390268;19;20147;-85
2022/06/11 01:44:00;;;;;;;7.73;4.47;;;;;;;;;;7394853;19;20146;-85
2022/06/11 01:46:29;;;;;;;7.70;4.30;;;;;;;;;;7399130;19;20160;-84
2022/06/11 01:48:55;;;;;;;6.27;4.50;;;;;;;;;;7397979;19;20152;-84
2022/06/11 01:51:24;;;;;;;6.97;4.47;;;;;;;;;;7387874;19;20149;-83
2022/06/11 01:54:00;;;;;;;6.03;4.67;;;;;;;;;;7388448;19;20184;-83
2022/06/11 01:56:43;;;;;;;10.10;4.73;;;;;;;;;;7390895;19;20189;-83
2022/06/11 01:59:22;;;;;;;6.30;4.50;;;;;;;;;;7389638;19;20758;-84
2022/06/11 02:01:54;;;;;;;6.37;4.83;;;;;;;;;;7381745;19;20614;-82
2022/06/11 02:04:34;;;;;;;4.80;4.13;;;;;;;;;;7396202;19;20149;-84
2022/06/11 02:06:59;;;;;;;5.43;4.33;;;;;;;;;;7394660;19;20169;-86
2022/06/11 02:09:35;;;;;;;5.87;4.57;;;;;;;;;;7388499;19;20167;-87
2022/06/11 02:12:04;;;;;;;6.03;4.10;;;;;;;;;;7389767;19;20156;-84
2022/06/11 02:14:35;;;;;;;5.60;4.70;;;;;;;;;;7393652;19;20129;-85
2022/06/11 02:17:05;;;;;;;4.80;4.27;;;;;;;;;;7390509;19;20176;-83
2022/06/11 02:19:33;;;;;;;8.37;4.37;;;;;;;;;;7390720;19;20645;-84
2022/06/11 02:22:02;;;;;;;7.40;4.57;;;;;;;;;;7390961;19;20163;-84
2022/06/11 02:24:31;;;;;;;5.07;4.40;;;;;;;;;;7387286;19;20145;-84
2022/06/11 02:27:00;;;;;;;6.90;4.23;;;;;;;;;;7385932;19;20563;-82
2022/06/11 02:29:26;;;;;;;7.37;4.47;;;;;;;;;;7386984;19;20556;-85
2022/06/11 02:31:55;;;;;;;4.87;4.37;;;;;;;;;;7395434;19;20140;-86
2022/06/11 02:34:22;;;;;;;6.83;4.10;;;;;;;;;;7386664;19;20167;-85
2022/06/11 02:36:54;;;;;;;7.53;4.30;;;;;;;;;;7381451;19;20175;-84
2022/06/11 02:39:21;;;;;;;6.53;4.53;;;;;;;;;;7388134;19;20212;-84
2022/06/11 02:41:47;;;;;;;8.27;4.50;;;;;;;;;;7388772;19;21478;-83
2022/06/11 02:44:13;;;;;;;7.10;4.30;;;;;;;;;;7389694;19;20196;-84
2022/06/11 02:46:43;;;;;;;7.00;4.83;;;;;;;;;;7389674;19;20176;-86
2022/06/11 02:49:11;;;;;;;7.13;4.77;;;;;;;;;;7384378;19;20534;-83
2022/06/11 02:51:37;;;;;;;7.53;4.77;;;;;;;;;;7397938;19;20157;-83
2022/06/11 02:54:03;;;;;;;6.90;5.27;;;;;;;;;;7384801;19;20149;-84
2022/06/11 02:56:30;;;;;;;6.10;4.60;;;;;;;;;;7389901;19;20754;-83
2022/06/11 02:58:56;;;;;;;5.13;4.63;;;;;;;;;;7392984;19;20133;-85
2022/06/11 03:01:22;;;;;;;5.03;4.60;;;;;;;;;;7385874;19;20157;-85
2022/06/11 03:03:49;;;;;;;7.70;4.93;;;;;;;;;;7390329;19;20251;-85
2022/06/11 03:06:16;;;;;;;5.10;4.60;;;;;;;;;;7387853;19;20205;-86
2022/06/11 03:08:42;;;;;;;6.73;4.80;;;;;;;;;;7389276;19;20132;-87
2022/06/11 03:11:08;;;;;;;7.00;4.63;;;;;;;;;;7383940;19;20157;-88
2022/06/11 03:13:34;;;;;;;7.53;4.60;;;;;;;;;;7387581;19;20149;-85
2022/06/11 03:16:00;;;;;;;7.00;4.57;;;;;;;;;;7389092;19;20149;-84
2022/06/11 03:18:27;;;;;;;6.57;4.90;;;;;;;;;;7392282;19;20603;-85
2022/06/11 03:20:54;;;;;;;10.33;5.33;;;;;;;;;;7395730;19;20140;-85
2022/06/11 03:23:21;;;;;;;5.47;4.60;;;;;;;;;;7389807;19;20148;-84
2022/06/11 03:25:47;;;;;;;7.53;5.10;;;;;;;;;;7394925;19;20149;-87
2022/06/11 03:28:15;;;;;;;5.17;4.60;;;;;;;;;;7386784;19;20141;-86
2022/06/11 03:30:41;;;;;;;4.57;4.17;;;;;;;;;;7381979;19;20290;-86
2022/06/11 03:33:07;;;;;;;4.80;4.33;;;;;;;;;;7384238;19;20125;-85
2022/06/11 03:35:34;;;;;;;5.10;4.60;;;;;;;;;;7385148;19;20149;-86
2022/06/11 03:38:00;;;;;;;6.27;4.37;;;;;;;;;;7379372;19;22958;-87
2022/06/11 03:40:27;;;;;;;5.03;4.53;;;;;;;;;;7381324;19;20159;-85
2022/06/11 03:42:53;;;;;;;6.67;4.20;;;;;;;;;;7389067;19;20121;-86
2022/06/11 03:45:19;;;;;;;5.40;4.30;;;;;;;;;;7383622;19;20541;-85
2022/06/11 03:47:45;;;;;;;4.67;4.13;;;;;;;;;;7385810;19;20580;-85
2022/06/11 03:50:16;;;;;;;4.83;4.33;;;;;;;;;;7388566;19;20140;-86
2022/06/11 03:52:42;;;;;;;4.90;4.40;;;;;;;;;;7383376;19;20125;-83
2022/06/11 03:55:09;;;;;;;5.07;4.00;;;;;;;;;;7385165;19;20148;-86
2022/06/11 03:57:35;;;;;;;5.50;4.37;;;;;;;;;;7382658;19;20461;-85
2022/06/11 04:00:02;;;;;;;6.07;4.57;;;;;;;;;;7385147;19;20156;-84
2022/06/11 04:02:28;;;;;;;7.20;4.80;;;;;;;;;;7377973;19;20113;-85
2022/06/11 04:04:54;;;;;;;6.70;4.00;;;;;;;;;;7382552;19;20155;-85
2022/06/11 04:07:20;;;;;;;5.93;4.30;;;;;;;;;;7379583;19;20445;-84
2022/06/11 04:09:46;;;;;;;7.07;4.40;;;;;;;;;;7386891;19;20155;-83
2022/06/11 04:12:15;;;;;;;4.67;4.20;;;;;;;;;;7381892;19;20563;-85
2022/06/11 04:14:42;;;;;;;4.60;3.80;;;;;;;;;;7379296;19;20582;-83
2022/06/11 04:17:11;;;;;;;5.60;4.13;;;;;;;;;;7371958;19;21361;-83
2022/06/11 04:19:39;;;;;;;4.93;4.10;;;;;;;;;;7381205;19;20153;-83
2022/06/11 04:22:05;;;;;;;4.30;3.90;;;;;;;;;;7378588;19;20140;-86
2022/06/11 04:24:32;;;;;;;3.97;3.67;;;;;;;;;;7384408;19;20147;-85
2022/06/11 04:26:59;;;;;;;5.53;4.20;;;;;;;;;;7387174;19;20179;-83
2022/06/11 04:29:28;;;;;;;6.20;3.97;;;;;;;;;;7382900;19;20199;-85
2022/06/11 04:31:55;;;;;;;6.03;3.90;;;;;;;;;;7383429;19;20161;-85
2022/06/11 04:34:22;;;;;;;4.27;3.87;;;;;;;;;;7382682;19;20256;-83
2022/06/11 04:36:48;;;;;;;4.30;3.70;;;;;;;;;;7379495;19;20300;-83
2022/06/11 04:39:16;;;;;;;3.77;3.47;;;;;;;;;;7378099;19;20193;-85
2022/06/11 04:41:42;;;;;;;6.80;4.30;;;;;;;;;;7384291;19;20151;-85
2022/06/11 04:44:08;;;;;;;5.40;4.00;;;;;;;;;;7380053;19;20645;-85
2022/06/11 04:46:35;;;;;;;5.00;3.73;;;;;;;;;;7381534;19;20473;-85
2022/06/11 04:49:01;;;;;;;5.30;3.93;;;;;;;;;;7394144;19;20137;-81
2022/06/11 04:51:27;;;;;;;4.33;3.90;;;;;;;;;;7406763;19;20156;-86
2022/06/11 04:53:53;;;;;;;5.27;3.97;;;;;;;;;;7418254;19;20156;-87
2022/06/11 04:56:21;;;;;;;6.13;3.80;;;;;;;;;;7399644;19;20141;-85
2022/06/11 04:58:48;;;;;;;5.63;3.70;;;;;;;;;;7413494;19;20144;-86
2022/06/11 05:01:15;;;;;;;6.27;3.87;;;;;;;;;;7411759;19;20141;-86
2022/06/11 05:03:41;;;;;;;4.17;3.77;;;;;;;;;;7416290;19;20213;-87
2022/06/11 05:06:07;;;;;;;6.73;4.00;;;;;;;;;;7400062;19;20184;-87
2022/06/11 05:08:33;;;;;;;6.67;3.97;;;;;;;;;;7409473;19;20153;-84
2022/06/11 05:10:59;;;;;;;5.93;4.70;;;;;;;;;;7394627;19;20144;-83
2022/06/11 05:13:25;;;;;;;7.47;4.50;;;;;;;;;;7397104;19;20132;-85
2022/06/11 05:15:53;;;;;;;7.93;4.97;;;;;;;;;;7391622;19;20185;-83
2022/06/11 05:18:20;;;;;;;6.07;4.80;;;;;;;;;;7394909;19;20205;-84
2022/06/11 05:20:47;;;;;;;5.63;4.30;;;;;;;;;;7383360;19;20148;-85
2022/06/11 05:23:13;;;;;;;5.30;4.80;;;;;;;;;;7387522;19;20125;-86
2022/06/11 05:25:39;;;;;;;9.47;5.20;;;;;;;;;;7384700;19;20602;-82
2022/06/11 05:28:07;;;;;;;9.80;4.97;;;;;;;;;;7378028;19;20149;-85
2022/06/11 05:30:33;;;;;;;6.80;4.33;;;;;;;;;;7392897;19;20132;-82
2022/06/11 05:33:00;;;;;;;5.67;4.43;;;;;;;;;;7397879;19;20166;-86
2022/06/11 05:35:29;;;;;;;9.70;4.90;;;;;;;;;;7386093;19;20129;-83
2022/06/11 05:37:56;;;;;;;6.03;4.37;;;;;;;;;;7391996;19;20148;-82
2022/06/11 05:40:24;;;;;;;5.13;3.93;;;;;;;;;;7397316;19;20133;-84
2022/06/11 05:42:50;;;;;;;4.87;4.00;;;;;;;;;;7401049;19;20132;-82
2022/06/11 05:45:23;;;;;;;6.43;4.90;;;;;;;;;;7400283;19;20151;-85
2022/06/11 05:47:51;;;;;;;5.93;4.13;;;;;;;;;;7402503;19;20129;-83
2022/06/11 05:50:20;;;;;;;3.83;3.27;;;;;;;;;;7396206;19;20149;-82
2022/06/11 05:52:46;;;;;;;4.93;3.23;;;;;;;;;;7400394;19;20156;-82
2022/06/11 05:55:16;;;;;;;3.80;3.30;;;;;;;;;;7402282;19;20121;-82
2022/06/11 05:57:44;;;;;;;5.17;3.53;;;;;;;;;;7393233;19;20175;-84
2022/06/11 06:00:12;;;;;;;3.80;3.37;;;;;;;;;;7408415;19;20129;-83
2022/06/11 06:02:40;;;;;;;5.00;3.17;;;;;;;;;;7395306;19;20173;-83
2022/06/11 06:05:06;;;;;;;3.13;2.87;;;;;;;;;;7390681;19;20145;-84
2022/06/11 06:07:32;;;;;;;3.17;2.50;;;;;;;;;;7394012;19;20166;-83
2022/06/11 06:09:58;;;;;;;4.13;2.90;;;;;;;;;;7400606;19;20129;-83
2022/06/11 06:12:24;;;;;;;3.43;2.60;;;;;;;;;;7400760;19;20201;-84
2022/06/11 06:14:50;;;;;;;3.57;2.50;;;;;;;;;;7399578;19;20169;-84
2022/06/11 06:17:17;;;;;;;4.07;2.50;;;;;;;;;;7399102;19;20148;-85
2022/06/11 06:19:43;;;;;;;3.13;2.37;;;;;;;;;;7396677;19;20145;-82
2022/06/11 06:22:09;;;;;;;4.00;2.70;;;;;;;;;;7394552;19;20133;-82
2022/06/11 06:24:35;;;;;;;4.60;2.53;;;;;;;;;;7396997;19;20156;-82
2022/06/11 06:27:01;;;;;;;3.33;3.03;;;;;;;;;;7385270;19;20180;-84
2022/06/11 06:29:27;;;;;;;3.23;2.70;;;;;;;;;;7394347;19;20982;-84
2022/06/11 06:31:53;;;;;;;3.50;2.73;;;;;;;;;;7399894;19;20611;-85
2022/06/11 06:34:19;;;;;;;3.33;2.90;;;;;;;;;;7393545;19;20121;-83
2022/06/11 06:36:45;;;;;;;3.77;3.00;;;;;;;;;;7381471;19;20642;-84
2022/06/11 06:39:11;;;;;;;3.40;2.70;;;;;;;;;;7391483;19;20141;-83
2022/06/11 06:41:37;;;;;;;4.87;2.73;;;;;;;;;;7403418;19;20437;-85
2022/06/11 06:44:04;;;;;;;4.27;3.07;;;;;;;;;;7417278;19;20152;-83
2022/06/11 06:46:30;;;;;;;6.33;3.57;;;;;;;;;;7410379;19;20184;-83
2022/06/11 06:48:56;;;;;;;5.67;4.40;;;;;;;;;;7412087;19;20156;-83
2022/06/11 06:51:22;;;;;;;5.60;2.77;;;;;;;;;;7383499;19;20160;-82
2022/06/11 06:53:48;;;;;;;4.47;3.10;;;;;;;;;;7390062;19;20232;-84
2022/06/11 06:56:14;;;;;;;2.93;2.60;;;;;;;;;;7396567;19;20161;-82
2022/06/11 06:58:41;;;;;;;3.07;2.87;;;;;;;;;;7407039;19;20655;-82
2022/06/11 07:01:07;;;;;;;3.67;2.90;;;;;;;;;;7416302;19;20137;-81
2022/06/11 07:03:33;;;;;;;5.67;3.50;;;;;;;;;;7419580;19;20122;-84
2022/06/11 07:06:01;;;;;;;5.60;3.60;;;;;;;;;;7411892;19;20176;-84
2022/06/11 07:08:27;;;;;;;7.83;3.33;;;;;;;;;;7387544;19;20227;-84
2022/06/11 07:10:54;;;;;;;5.30;3.57;;;;;;;;;;7385678;19;20190;-82
2022/06/11 07:13:21;;;;;;;4.10;3.07;;;;;;;;;;7393966;19;20161;-84
2022/06/11 07:15:49;;;;;;;4.10;2.97;;;;;;;;;;7387200;19;20149;-82
2022/06/11 07:18:18;;;;;;;4.43;3.20;;;;;;;;;;7386451;19;20703;-80
2022/06/11 07:20:46;;;;;;;3.97;3.40;;;;;;;;;;7386640;19;20508;-83
2022/06/11 07:23:18;;;;;;;5.90;3.87;;;;;;;;;;7385045;19;20212;-82
2022/06/11 07:25:47;;;;;;;6.30;3.83;;;;;;;;;;7385974;19;20603;-81
2022/06/11 07:28:18;;;;;;;4.30;3.40;;;;;;;;;;7387696;19;20149;-83
2022/06/11 07:30:45;;;;;;;5.50;4.17;;;;;;;;;;7387003;19;20176;-81
2022/06/11 07:33:12;;;;;;;5.93;4.10;;;;;;;;;;7390453;19;20152;-80
2022/06/11 07:35:39;;;;;;;3.93;3.50;;;;;;;;;;7385888;19;20181;-82
2022/06/11 07:38:06;;;;;;;5.23;3.70;;;;;;;;;;7394263;19;20137;-81
2022/06/11 07:40:32;;;;;;;4.23;3.53;;;;;;;;;;7391270;19;20149;-82
2022/06/11 07:42:59;;;;;;;5.00;4.20;;;;;;;;;;7388576;19;20147;-81
2022/06/11 07:45:25;;;;;;;5.70;3.75;;;;;;;;;;7390958;19;20153;-84
2022/06/11 07:47:53;;;;;;;4.35;3.22;;;;;;;;;;7392185;19;20140;-82
2022/06/11 07:50:22;;;;;;;4.30;3.60;;;;;;;;;;7388268;19;20645;-81
2022/06/11 07:52:49;;;;;;;3.97;3.58;;;;;;;;;;7385302;19;20152;-80
2022/06/11 07:55:14;;;;;;;3.60;3.22;;;;;;;;;;7390530;19;20168;-81
2022/06/11 07:57:40;;;;;;;4.22;3.17;;;;;;;;;;7393241;19;20144;-81
2022/06/11 08:00:08;;;;;;;4.88;3.30;;;;;;;;;;7395937;19;20136;-81
2022/06/11 08:02:34;;;;;;;3.60;3.30;;;;;;;;;;7391893;19;20145;-81
2022/06/11 08:05:00;;;;;;;4.18;3.25;;;;;;;;;;7391785;19;20152;-80
2022/06/11 08:07:29;;;;;;;3.83;3.17;;;;;;;;;;7389548;19;20216;-81
2022/06/11 08:09:57;;;;;;;3.53;2.83;;;;;;;;;;7388956;19;20129;-81
2022/06/11 08:12:23;;;;;;;8.35;6.15;;;;;;;;;;7385390;19;20503;-80
2022/06/11 08:14:49;;;;;;;7.28;4.75;;;;;;;;;;7387733;19;20167;-83
2022/06/11 08:17:15;;;;;;;5.85;3.40;;;;;;;;;;7386698;19;20156;-81
2022/06/11 08:19:41;;;;;;;2.80;2.50;;;;;;;;;;7377499;19;20533;-81
2022/06/11 08:22:07;;;;;;;4.45;3.40;;;;;;;;;;7369004;19;20153;-81
2022/06/11 08:24:33;;;;;;;5.35;2.90;;;;;;;;;;7385349;19;20157;-83
2022/06/11 08:26:59;;;;;;;4.47;3.00;;;;;;;;;;7379518;19;20183;-81
2022/06/11 08:29:25;;;;;;;3.05;2.67;;;;;;;;;;7382363;19;20149;-81
2022/06/11 08:31:51;;;;;;;5.03;2.90;;;;;;;;;;7398567;19;20133;-81
2022/06/11 08:34:17;;;;;;;4.78;3.00;;;;;;;;;;7387665;19;20155;-80
2022/06/11 08:36:43;;;;;;;3.60;2.80;;;;;;;;;;7383311;19;20176;-81
2022/06/11 08:39:09;;;;;;;4.60;3.10;;;;;;;;;;7382813;19;20493;-81
2022/06/11 08:41:35;;;;;;;5.57;3.40;;;;;;;;;;7385523;19;20152;-82
2022/06/11 08:44:04;;;;;;;3.75;2.75;;;;;;;;;;7390123;19;20647;-81
2022/06/11 08:46:34;;;;;;;2.92;2.33;;;;;;;;;;7389949;19;20622;-82
2022/06/11 08:49:03;;;;;;;3.88;2.42;;;;;;;;;;7389277;19;20149;-84
2022/06/11 08:51:35;;;;;;;2.67;2.47;;;;;;;;;;7411206;19;20148;-84
2022/06/11 08:54:08;;;;;;;2.92;2.63;;;;;;;;;;7411812;19;20152;-84
2022/06/11 08:56:58;;;;;;;4.55;2.80;;;;;;;;;;7395262;19;20222;-81
2022/06/11 08:59:42;;;;;;;2.85;2.38;;;;;;;;;;7384888;19;20156;-81
2022/06/11 09:02:08;;;;;;;3.63;2.17;;;;;;;;;;7387164;19;21034;-82
2022/06/11 09:04:54;;;;;;;3.10;2.30;;;;;;;;;;7383067;19;20136;-82
2022/06/11 09:07:20;;;;;;;3.63;2.60;;;;;;;;;;7373477;19;20870;-83
2022/06/11 09:09:46;;;;;;;4.47;2.67;;;;;;;;;;7381303;19;20145;-83
2022/06/11 09:12:31;;;;;;;3.28;2.85;;;;;;;;;;7387997;19;20117;-83
2022/06/11 09:15:13;;;;;;;2.70;2.50;;;;;;;;;;7390062;19;20153;-82
2022/06/11 09:18:03;;;;;;;2.80;2.60;;;;;;;;;;7388439;19;20171;-82
2022/06/11 09:20:35;;;;;;;2.70;2.03;;;;;;;;;;7380383;19;20717;-81
2022/06/11 09:23:22;;;;;;;3.72;2.47;;;;;;;;;;7385922;19;20180;-83
2022/06/11 09:25:48;;;;;;;3.17;2.33;;;;;;;;;;7379944;19;20179;-81
2022/06/11 09:28:20;;;;;;;2.78;1.98;;;;;;;;;;7383253;19;20128;-82
2022/06/11 09:30:48;;;;;;;2.92;2.30;;;;;;;;;;7378005;19;20594;-81
2022/06/11 09:33:14;;;;;;;5.13;2.20;;;;;;;;;;7377941;19;20452;-82
2022/06/11 09:35:44;;;;;;;4.30;2.45;;;;;;;;;;7376285;19;20176;-84
2022/06/11 09:38:29;;;;;;;3.17;1.90;;;;;;;;;;7379044;19;20167;-81
2022/06/11 09:41:09;;;;;;;4.28;2.20;;;;;;;;;;7384374;19;20117;-83
2022/06/11 09:43:35;;;;;;;3.17;2.10;;;;;;;;;;7377990;19;20673;-81
2022/06/11 09:46:01;;;;;;;2.67;1.92;;;;;;;;;;7383342;19;20176;-81
2022/06/11 09:48:45;;;;;;;2.00;1.90;;;;;;;;;;7376310;19;20167;-81
2022/06/11 09:51:24;;;;;;;3.03;2.03;;;;;;;;;;7386502;19;22599;-81
2022/06/11 09:54:00;;;;;;;3.03;2.30;;;;;;;;;;7388338;19;20156;-82
2022/06/11 09:56:26;;;;;;;3.55;1.92;;;;;;;;;;7381412;19;20168;-83
2022/06/11 09:58:53;;;;;;;3.63;1.60;;;;;;;;;;7386828;19;20133;-82
2022/06/11 10:01:28;;;;;;;2.67;1.80;;;;;;;;;;7383784;19;20212;-82
2022/06/11 10:04:10;;;;;;;2.22;1.65;;;;;;;;;;7377664;19;20535;-81
2022/06/11 10:06:39;;;;;;;1.83;1.70;;;;;;;;;;7377032;19;20152;-82
2022/06/11 10:09:09;;;;;;;3.03;2.35;;;;;;;;;;7379380;19;20152;-81
2022/06/11 10:11:38;;;;;;;2.88;2.20;;;;;;;;;;7386336;19;20771;-81
2022/06/11 10:14:29;;;;;;;3.10;2.28;;;;;;;;;;7385103;19;20129;-81
2022/06/11 10:17:10;;;;;;;2.38;1.90;;;;;;;;;;7382644;19;20172;-82
2022/06/11 10:19:40;;;;;;;2.30;1.80;;;;;;;;;;7385434;19;21021;-80
2022/06/11 10:22:15;;;;;;;2.63;2.08;;;;;;;;;;7387832;19;20133;-81
2022/06/11 10:24:45;;;;;;;2.80;2.28;;;;;;;;;;7391451;19;20149;-81
2022/06/11 10:27:13;;;;;;;4.70;2.10;;;;;;;;;;7379632;19;20172;-82
2022/06/11 10:29:50;;;;;;;2.75;2.15;;;;;;;;;;7382192;19;20125;-82
2022/06/11 10:32:16;;;;;;;2.35;2.10;;;;;;;;;;7387698;19;20148;-81
2022/06/11 10:34:45;;;;;;;3.47;2.00;;;;;;;;;;7383702;19;20634;-82
2022/06/11 10:37:15;;;;;;;2.40;2.17;;;;;;;;;;7382485;19;20152;-81
2022/06/11 10:39:41;;;;;;;2.70;1.70;;;;;;;;;;7378616;19;20152;-81
2022/06/11 10:42:20;;;;;;;4.70;2.13;;;;;;;;;;7375241;19;20156;-80
2022/06/11 10:44:49;;;;;;;2.60;2.40;;;;;;;;;;7383264;19;20664;-81
2022/06/11 10:47:17;;;;;;;2.88;2.08;;;;;;;;;;7380838;19;20184;-80
2022/06/11 10:49:45;;;;;;;2.72;1.88;;;;;;;;;;7388381;19;20673;-80
2022/06/11 10:52:19;;;;;;;2.10;1.88;;;;;;;;;;7383375;19;20524;-80
2022/06/11 10:54:45;;;;;;;1.95;1.85;;;;;;;;;;7388543;19;20156;-80
2022/06/11 10:57:16;;;;;;;2.17;1.63;;;;;;;;;;7382169;19;20157;-80
2022/06/11 10:59:45;;;;;;;1.80;1.70;;;;;;;;;;7378219;19;20197;-81
2022/06/11 11:02:28;;;;;;;2.33;1.60;;;;;;;;;;7383034;19;20153;-81
2022/06/11 11:04:59;;;;;;;3.08;1.52;;;;;;;;;;7380781;19;20156;-81
2022/06/11 11:07:25;;;;;;;1.63;1.45;;;;;;;;;;7382571;19;20153;-81
2022/06/11 11:09:56;;;;;;;2.38;1.63;;;;;;;;;;7391636;19;20623;-81
2022/06/11 11:12:22;;;;;;;2.40;1.60;;;;;;;;;;7394749;19;20554;-81
2022/06/11 11:14:56;;;;;;;2.22;1.67;;;;;;;;;;7379055;19;20138;-80
2022/06/11 11:17:25;;;;;;;2.22;1.75;;;;;;;;;;7389727;19;20145;-81
2022/06/11 11:22:38;;;;;;;2.50;1.60;;;;;;;;;;7389897;19;20606;-81
2022/06/11 11:25:07;;;;;;;2.63;1.75;;;;;;;;;;7386409;19;20144;-81
2022/06/11 11:27:41;;;;;;;2.90;1.85;;;;;;;;;;7380743;19;20256;-80
2022/06/11 11:30:16;;;;;;;3.08;1.60;;;;;;;;;;7382393;19;20147;-80
2022/06/11 11:32:44;;;;;;;3.08;1.95;;;;;;;;;;7371833;19;20215;-80
2022/06/11 11:35:15;;;;;;;2.45;1.80;;;;;;;;;;7377890;19;20124;-80
2022/06/11 11:37:41;;;;;;;2.30;1.90;;;;;;;;;;7384142;19;20996;-80
2022/06/11 11:40:24;;;;;;;1.95;1.55;;;;;;;;;;7384762;19;20141;-81
2022/06/11 11:42:52;;;;;;;1.85;1.58;;;;;;;;;;7389830;19;20200;-80
2022/06/11 11:45:20;;;;;;;2.85;1.92;;;;;;;;;;7419489;19;20157;-81
2022/06/11 11:47:47;;;;;;;1.92;1.60;;;;;;;;;;7416330;19;20137;-81
2022/06/11 11:50:13;;;;;;;1.70;1.60;;;;;;;;;;7396253;19;20144;-80
2022/06/11 11:52:44;;;;;;;1.73;1.63;;;;;;;;;;7409928;19;20144;-80
2022/06/11 11:55:27;;;;;;;2.97;1.70;;;;;;;;;;7419146;19;20149;-81
2022/06/11 11:58:01;;;;;;;2.67;1.80;;;;;;;;;;7413423;19;20155;-81
2022/06/11 12:00:27;;;;;;;3.10;1.67;;;;;;;;;;7423935;19;20172;-81
2022/06/11 12:02:55;;;;;;;1.77;1.60;;;;;;;;;;7399319;19;20504;-80
2022/06/11 12:05:23;;;;;;;2.30;1.80;;;;;;;;;;7370478;19;20156;-80
2022/06/11 12:07:51;;;;;;;2.45;1.63;;;;;;;;;;7379979;19;20160;-81
2022/06/11 12:10:27;;;;;;;2.47;1.80;;;;;;;;;;7376459;19;20159;-81
2022/06/11 12:13:02;;;;;;;2.33;2.13;;;;;;;;;;7370473;19;20157;-80
2022/06/11 12:15:32;;;;;;;4.03;2.00;;;;;;;;;;7376864;19;20179;-80
2022/06/11 12:18:10;;;;;;;2.20;1.52;;;;;;;;;;7381514;19;20147;-81
2022/06/11 12:20:57;;;;;;;1.80;1.70;;;;;;;;;;7372457;19;20145;-79
2022/06/11 12:23:35;;;;;;;3.05;1.73;;;;;;;;;;7380705;19;20581;-81
2022/06/11 12:26:13;;;;;;;2.55;1.90;;;;;;;;;;7401814;19;20168;-81
2022/06/11 12:28:42;;;;;;;2.03;1.70;;;;;;;;;;7406209;19;20492;-82
2022/06/11 12:31:09;;;;;;;1.63;1.52;;;;;;;;;;7389173;19;20125;-82
2022/06/11 12:33:36;;;;;;;2.13;1.60;;;;;;;;;;7380838;19;20145;-83
2022/06/11 12:36:11;;;;;;;1.98;1.60;;;;;;;;;;7380758;19;20196;-83
2022/06/11 12:38:43;;;;;;;1.77;1.58;;;;;;;;;;7376251;19;20192;-82
2022/06/11 12:41:16;;;;;;;1.90;1.70;;;;;;;;;;7376304;19;20125;-81
2022/06/11 12:44:03;;;;;;;2.25;1.85;;;;;;;;;;7376992;19;21150;-80
2022/06/11 12:46:34;;;;;;;3.03;1.63;;;;;;;;;;7380258;19;20199;-81
2022/06/11 12:49:18;;;;;;;1.90;1.70;;;;;;;;;;7381061;19;20137;-81
2022/06/11 12:52:05;;;;;;;1.95;1.48;;;;;;;;;;7388204;19;20141;-80
2022/06/11 12:54:49;;;;;;;4.88;4.47;;;;;;;;;;7381880;19;20164;-81
2022/06/11 12:57:37;;;;;;;1.60;1.50;;;;;;;;;;7382812;19;20157;-81
2022/06/11 13:00:23;;;;;;;1.75;1.65;;;;;;;;;;7383056;19;21348;-81
2022/06/11 13:02:57;;;;;;;1.63;1.52;;;;;;;;;;7384997;19;20140;-81
2022/06/11 13:05:23;;;;;;;1.95;1.70;;;;;;;;;;7384002;19;20401;-81
2022/06/11 13:08:00;;;;;;;1.50;1.40;;;;;;;;;;7383889;19;20148;-81
2022/06/11 13:10:29;;;;;;;1.67;1.58;;;;;;;;;;7374969;19;20429;-81
2022/06/11 13:13:18;;;;;;;2.10;1.60;;;;;;;;;;7378007;19;20144;-81
2022/06/11 13:16:13;;;;;;;1.58;1.48;;;;;;;;;;7382443;19;20164;-83
2022/06/11 13:18:58;;;;;;;2.50;1.55;;;;;;;;;;7376056;19;20606;-80
2022/06/11 13:21:34;;;;;;;1.40;1.30;;;;;;;;;;7371789;19;20148;-80
2022/06/11 13:24:09;;;;;;;1.70;1.60;;;;;;;;;;7367901;19;20587;-80
2022/06/11 13:26:45;;;;;;;1.70;1.55;;;;;;;;;;7379309;19;20176;-81
2022/06/11 13:29:32;;;;;;;1.48;1.38;;;;;;;;;;7378711;19;20148;-81
2022/06/11 13:32:05;;;;;;;1.52;1.42;;;;;;;;;;7375596;19;20156;-81
2022/06/11 13:34:54;;;;;;;1.70;1.60;;;;;;;;;;7387271;19;20128;-81
2022/06/11 13:37:26;;;;;;;2.10;1.90;;;;;;;;;;7382016;19;20185;-82
2022/06/11 13:40:12;;;;;;;1.77;1.52;;;;;;;;;;7380944;19;20558;-82
2022/06/11 13:43:06;;;;;;;1.40;1.30;;;;;;;;;;7368242;19;20168;-81
2022/06/11 13:45:38;;;;;;;2.00;1.90;;;;;;;;;;7384877;19;20149;-83
2022/06/11 13:48:19;;;;;;;1.73;1.40;;;;;;;;;;7384549;19;20148;-81
2022/06/11 13:50:45;;;;;;;2.28;1.45;;;;;;;;;;7385543;19;20147;-81
2022/06/11 13:56:27;;;;;;;1.60;1.52;;;;;;;;;;7380682;19;20187;-81
2022/06/11 13:59:12;;;;;;;3.53;1.70;;;;;;;;;;7386937;19;20156;-83
2022/06/11 14:01:57;;;;;;;1.95;1.75;;;;;;;;;;7389498;19;20144;-84
2022/06/11 14:04:23;;;;;;;1.90;1.80;;;;;;;;;;7395565;19;20120;-81
2022/06/11 14:06:49;;;;;;;3.13;2.90;;;;;;;;;;7398122;19;20156;-81
2022/06/11 14:12:06;;;;;;;2.42;1.60;;;;;;;;;;7388610;19;20144;-82
2022/06/11 14:14:35;;;;;;;1.73;1.48;;;;;;;;;;7392720;19;20149;-82
2022/06/11 14:17:01;;;;;;;2.20;1.65;;;;;;;;;;7386914;19;20168;-81
2022/06/11 14:19:27;;;;;;;1.73;1.63;;;;;;;;;;7382800;19;20144;-82
2022/06/11 14:21:54;;;;;;;1.90;1.80;;;;;;;;;;7385897;19;20124;-81
2022/06/11 14:24:39;;;;;;;2.22;1.60;;;;;;;;;;7384914;19;20128;-81
2022/06/11 14:27:26;;;;;;;1.77;1.60;;;;;;;;;;7388109;19;20553;-81
2022/06/11 14:30:03;;;;;;;1.73;1.52;;;;;;;;;;7382065;19;20139;-81
2022/06/11 14:32:30;;;;;;;2.47;1.90;;;;;;;;;;7380871;19;20127;-81
2022/06/11 14:35:15;;;;;;;2.00;1.70;;;;;;;;;;7381094;19;20136;-81
2022/06/11 14:37:41;;;;;;;1.48;1.38;;;;;;;;;;7385533;19;20139;-81
2022/06/11 14:40:20;;;;;;;1.50;1.45;;;;;;;;;;7392903;19;20152;-82
2022/06/11 14:42:58;;;;;;;1.55;1.45;;;;;;;;;;7391820;19;20160;-82
2022/06/11 14:45:36;;;;;;;1.70;1.60;;;;;;;;;;7391268;19;20120;-81
2022/06/11 14:48:13;;;;;;;2.20;1.45;;;;;;;;;;7393667;19;20163;-82
2022/06/11 14:50:58;;;;;;;1.83;1.70;;;;;;;;;;7421092;19;20128;-82
2022/06/11 14:53:33;;;;;;;1.60;1.50;;;;;;;;;;7415784;19;20173;-82
2022/06/11 14:56:15;;;;;;;1.65;1.55;;;;;;;;;;7385166;19;20194;-82
2022/06/11 14:58:47;;;;;;;1.33;1.27;;;;;;;;;;7390677;19;20158;-82
2022/06/11 15:01:43;;;;;;;1.50;1.40;;;;;;;;;;7387972;19;20151;-81
2022/06/11 15:04:19;;;;;;;1.60;1.50;;;;;;;;;;7386487;19;20484;-82
2022/06/11 15:06:48;;;;;;;1.55;1.45;;;;;;;;;;7369800;19;20171;-82
2022/06/11 15:09:32;;;;;;;1.80;1.70;;;;;;;;;;7383998;19;20468;-82
2022/06/11 15:12:01;;;;;;;1.98;1.60;;;;;;;;;;7390687;19;20137;-82
2022/06/11 15:14:40;;;;;;;1.63;1.52;;;;;;;;;;7388929;19;20112;-82
2022/06/11 15:17:13;;;;;;;1.33;1.30;;;;;;;;;;7390045;19;20500;-82
2022/06/11 15:19:43;;;;;;;1.45;1.35;;;;;;;;;;7388951;19;20138;-82
2022/06/11 15:22:32;;;;;;;1.30;1.27;;;;;;;;;;7386469;19;20144;-82
2022/06/11 15:25:01;;;;;;;2.03;1.30;;;;;;;;;;7389465;19;20162;-82
2022/06/11 15:27:28;;;;;;;1.80;1.70;;;;;;;;;;7396619;19;20189;-82
2022/06/11 15:30:09;;;;;;;1.10;1.10;;;;;;;;;;7408075;19;20177;-82
2022/06/11 15:32:36;;;;;;;1.40;1.30;;;;;;;;;;7403982;19;20168;-82
2022/06/11 15:35:02;;;;;;;1.30;1.20;;;;;;;;;;7378386;19;20411;-84
2022/06/11 15:37:41;;;;;;;1.42;1.08;;;;;;;;;;7377089;19;20144;-84
2022/06/11 15:40:22;;;;;;;1.25;1.15;;;;;;;;;;7381037;19;20124;-84
2022/06/11 15:42:48;;;;;;;1.50;1.40;;;;;;;;;;7376872;19;20128;-84
2022/06/11 15:45:20;;;;;;;2.50;1.20;;;;;;;;;;7373758;19;20148;-84
2022/06/11 15:47:55;;;;;;;1.48;1.38;;;;;;;;;;7382347;19;20156;-84
2022/06/11 15:50:22;;;;;;;1.13;1.13;;;;;;;;;;7383990;19;20515;-83
2022/06/11 15:52:48;;;;;;;1.92;1.83;;;;;;;;;;7381342;19;20156;-82
2022/06/11 15:55:14;;;;;;;1.48;1.40;;;;;;;;;;7379556;19;20485;-84
2022/06/11 15:57:49;;;;;;;1.77;1.30;;;;;;;;;;7389471;19;20228;-84
2022/06/11 16:00:20;;;;;;;1.30;1.20;;;;;;;;;;7388262;19;20120;-84
2022/06/11 16:02:47;;;;;;;7.82;7.13;;;;;;;;;;7391483;19;20196;-85
2022/06/11 16:05:20;;;;;;;4.15;3.75;;;;;;;;;;7383534;19;20188;-82
2022/06/11 16:07:50;;;;;;;2.97;2.10;;;;;;;;;;7392883;19;20117;-81
2022/06/11 16:10:16;;;;;;;2.08;1.98;;;;;;;;;;7386497;19;20161;-82
2022/06/11 16:12:45;;;;;;;1.80;1.70;;;;;;;;;;7385381;19;20618;-81
2022/06/11 16:15:38;;;;;;;1.65;1.50;;;;;;;;;;7392982;19;20160;-82
2022/06/11 16:18:23;;;;;;;1.42;1.33;;;;;;;;;;7384688;19;20157;-82
2022/06/11 16:20:55;;;;;;;2.08;1.38;;;;;;;;;;7391481;19;20152;-82
2022/06/11 16:23:23;;;;;;;1.40;1.30;;;;;;;;;;7386180;19;20549;-81
2022/06/11 16:25:50;;;;;;;2.25;1.48;;;;;;;;;;7391110;19;20173;-82
2022/06/11 16:28:21;;;;;;;1.52;1.42;;;;;;;;;;7389971;19;20649;-82
2022/06/11 16:30:48;;;;;;;1.75;1.55;;;;;;;;;;7383235;19;20158;-81
2022/06/11 16:33:14;;;;;;;1.40;1.30;;;;;;;;;;7382913;19;20524;-82
2022/06/11 16:35:49;;;;;;;2.40;1.67;;;;;;;;;;7389056;19;20160;-82
2022/06/11 16:38:27;;;;;;;1.80;1.20;;;;;;;;;;7383142;19;20665;-82
2022/06/11 16:40:56;;;;;;;1.88;1.40;;;;;;;;;;7390306;19;20145;-81